createdAt,value
2023-04-30T00:07:14.484Z,8.96
2023-04-30T00:22:16.136Z,10.96
2023-04-30T00:37:17.809Z,10.99
2023-04-30T00:52:19.696Z,9.71
2023-04-30T01:07:21.804Z,10.85
2023-04-30T01:22:26.543Z,10.70
2023-04-30T01:37:31.129Z,10.78
2023-04-30T01:52:47.094Z,9.57
2023-04-30T02:07:50.979Z,9.95
2023-04-30T02:22:53.300Z,10.74
2023-04-30T02:37:54.960Z,10.48
2023-04-30T02:52:56.622Z,8.23
2023-04-30T03:07:58.260Z,10.98
2023-04-30T03:22:59.867Z,9.50
2023-04-30T03:38:02.284Z,11.25
2023-04-30T03:53:03.941Z,10.39
2023-04-30T04:08:06.545Z,10.29
2023-04-30T04:23:08.167Z,8.39
2023-04-30T04:38:09.953Z,9.91
2023-04-30T04:53:11.706Z,9.74
2023-04-30T05:08:13.493Z,10.79
2023-04-30T05:23:15.317Z,11.34
2023-04-30T05:38:16.978Z,12.14
2023-04-30T05:53:18.748Z,12.11
2023-04-30T06:08:20.594Z,13.14
2023-04-30T06:23:22.377Z,12.25
2023-04-30T06:38:24.107Z,12.53
2023-04-30T06:53:26.112Z,11.24
2023-04-30T07:08:27.812Z,14.95
2023-04-30T07:23:30.655Z,13.76
2023-04-30T07:38:33.235Z,14.45
2023-04-30T07:53:34.956Z,14.15
2023-04-30T08:08:36.704Z,14.98
2023-04-30T08:23:38.458Z,15.27
2023-04-30T08:38:40.228Z,15.83
2023-04-30T08:53:42.847Z,16.51
2023-04-30T09:08:49.556Z,18.01
2023-04-30T09:23:56.235Z,18.09
2023-04-30T09:39:14.806Z,16.46
2023-04-30T09:54:19.357Z,16.14
2023-04-30T10:09:22.756Z,17.61
2023-04-30T10:24:24.648Z,16.45
2023-04-30T10:39:30.082Z,15.94
2023-04-30T10:54:36.769Z,16.71
2023-04-30T11:09:43.133Z,17.67
2023-04-30T11:25:02.718Z,17.51
2023-04-30T11:40:07.937Z,17.09
2023-04-30T11:55:18.481Z,18.71
2023-04-30T12:10:20.509Z,17.44
2023-04-30T12:25:23.209Z,17.44
2023-04-30T12:40:27.865Z,17.41
2023-04-30T12:55:31.201Z,17.59
2023-04-30T13:10:33.018Z,16.70
2023-04-30T13:25:35.171Z,17.69
2023-04-30T13:40:36.932Z,15.56
2023-04-30T13:55:38.600Z,16.32
2023-04-30T14:10:40.300Z,14.43
2023-04-30T14:25:42.444Z,16.83
2023-04-30T14:40:44.401Z,15.37
2023-04-30T14:55:46.071Z,15.21
2023-04-30T15:10:47.793Z,16.63
2023-04-30T15:25:49.733Z,16.56
2023-04-30T15:40:51.822Z,16.38
2023-04-30T15:55:53.970Z,14.94
2023-04-30T16:10:55.733Z,16.99
2023-04-30T16:25:57.393Z,15.58
2023-04-30T16:40:59.767Z,16.67
2023-04-30T16:56:01.600Z,15.58
2023-04-30T17:11:03.267Z,14.87
2023-04-30T17:26:05.700Z,14.25
2023-04-30T17:41:07.625Z,14.46
2023-04-30T17:56:09.824Z,14.58
2023-04-30T18:11:11.811Z,14.01
2023-04-30T18:26:13.464Z,14.19
2023-04-30T18:41:15.096Z,14.17
2023-04-30T18:56:16.993Z,14.27
2023-04-30T19:11:20.053Z,14.67
2023-04-30T19:26:22.568Z,15.37
2023-04-30T19:41:24.549Z,13.90
2023-04-30T19:56:26.240Z,15.19
2023-04-30T20:11:28.218Z,13.98
2023-04-30T20:26:29.968Z,12.55
2023-04-30T20:41:32.266Z,14.86
2023-04-30T20:56:33.774Z,14.39
2023-04-30T21:11:35.498Z,13.45
2023-04-30T21:26:37.192Z,11.36
2023-04-30T21:41:38.910Z,14.53
2023-04-30T21:56:41.160Z,10.69
2023-04-30T22:11:42.717Z,14.57
2023-04-30T22:26:44.621Z,12.54
2023-04-30T22:41:46.597Z,10.29
2023-04-30T22:56:48.256Z,9.71
2023-04-30T23:11:49.902Z,13.93
2023-04-30T23:26:51.979Z,12.86
2023-04-30T23:41:53.611Z,12.93
2023-04-30T23:56:55.458Z,11.24
